sensor_id;sensor_type;location;lat;lon;timestamp;P1;durP1;ratioP1;P2;durP2;ratioP2
48203;SDS011;33994;50.998;5.864;2023-04-01T00:01:42;3.92;;;0.90;;
48203;SDS011;33994;50.998;5.864;2023-04-01T00:04:45;5.57;;;1.15;;
48203;SDS011;33994;50.998;5.864;2023-04-01T00:07:48;4.55;;;1.17;;
48203;SDS011;33994;50.998;5.864;2023-04-01T00:10:51;6.88;;;1.30;;
48203;SDS011;33994;50.998;5.864;2023-04-01T00:13:56;7.97;;;1.40;;
48203;SDS011;33994;50.998;5.864;2023-04-01T00:17:00;5.82;;;1.33;;
48203;SDS011;33994;50.998;5.864;2023-04-01T00:20:03;4.00;;;1.23;;
48203;SDS011;33994;50.998;5.864;2023-04-01T00:23:07;6.05;;;1.02;;
48203;SDS011;33994;50.998;5.864;2023-04-01T00:26:10;4.85;;;0.85;;
48203;SDS011;33994;50.998;5.864;2023-04-01T00:29:15;3.75;;;0.90;;
48203;SDS011;33994;50.998;5.864;2023-04-01T00:32:18;4.20;;;0.85;;
48203;SDS011;33994;50.998;5.864;2023-04-01T00:35:21;4.38;;;0.70;;
48203;SDS011;33994;50.998;5.864;2023-04-01T00:38:24;8.30;;;1.15;;
48203;SDS011;33994;50.998;5.864;2023-04-01T00:41:28;4.82;;;0.90;;
48203;SDS011;33994;50.998;5.864;2023-04-01T00:44:33;3.70;;;0.88;;
48203;SDS011;33994;50.998;5.864;2023-04-01T00:47:37;3.78;;;1.15;;
48203;SDS011;33994;50.998;5.864;2023-04-01T00:50:40;8.25;;;0.98;;
48203;SDS011;33994;50.998;5.864;2023-04-01T00:53:47;2.45;;;0.77;;
48203;SDS011;33994;50.998;5.864;2023-04-01T00:56:54;6.22;;;1.17;;
48203;SDS011;33994;50.998;5.864;2023-04-01T01:00:03;4.15;;;1.10;;
48203;SDS011;33994;50.998;5.864;2023-04-01T01:03:08;4.15;;;1.00;;
48203;SDS011;33994;50.998;5.864;2023-04-01T01:06:15;6.72;;;1.17;;
48203;SDS011;33994;50.998;5.864;2023-04-01T01:09:26;5.07;;;1.10;;
48203;SDS011;33994;50.998;5.864;2023-04-01T01:12:35;6.43;;;1.00;;
48203;SDS011;33994;50.998;5.864;2023-04-01T01:15:46;3.35;;;0.90;;
48203;SDS011;33994;50.998;5.864;2023-04-01T01:18:53;3.38;;;0.98;;
48203;SDS011;33994;50.998;5.864;2023-04-01T01:25:39;4.25;;;0.85;;
48203;SDS011;33994;50.998;5.864;2023-04-01T01:28:48;2.65;;;0.90;;
48203;SDS011;33994;50.998;5.864;2023-04-01T01:32:02;5.60;;;0.90;;
48203;SDS011;33994;50.998;5.864;2023-04-01T01:35:20;7.88;;;1.02;;
48203;SDS011;33994;50.998;5.864;2023-04-01T01:38:27;4.55;;;1.00;;
48203;SDS011;33994;50.998;5.864;2023-04-01T01:41:33;4.70;;;1.15;;
48203;SDS011;33994;50.998;5.864;2023-04-01T01:44:39;3.63;;;0.80;;
48203;SDS011;33994;50.998;5.864;2023-04-01T01:47:46;3.50;;;0.97;;
48203;SDS011;33994;50.998;5.864;2023-04-01T01:50:53;5.55;;;1.10;;
48203;SDS011;33994;50.998;5.864;2023-04-01T01:53:56;4.30;;;0.73;;
48203;SDS011;33994;50.998;5.864;2023-04-01T01:57:03;4.47;;;0.88;;
48203;SDS011;33994;50.998;5.864;2023-04-01T02:00:09;5.55;;;0.88;;
48203;SDS011;33994;50.998;5.864;2023-04-01T02:03:14;5.35;;;1.00;;
48203;SDS011;33994;50.998;5.864;2023-04-01T02:06:22;2.63;;;0.70;;
48203;SDS011;33994;50.998;5.864;2023-04-01T02:09:27;3.90;;;1.00;;
48203;SDS011;33994;50.998;5.864;2023-04-01T02:12:30;3.28;;;0.80;;
48203;SDS011;33994;50.998;5.864;2023-04-01T02:15:37;1.92;;;0.70;;
48203;SDS011;33994;50.998;5.864;2023-04-01T02:18:45;2.53;;;0.73;;
48203;SDS011;33994;50.998;5.864;2023-04-01T02:21:54;2.85;;;0.82;;
48203;SDS011;33994;50.998;5.864;2023-04-01T02:25:00;3.63;;;0.80;;
48203;SDS011;33994;50.998;5.864;2023-04-01T02:28:07;2.63;;;0.70;;
48203;SDS011;33994;50.998;5.864;2023-04-01T02:31:13;4.22;;;0.80;;
48203;SDS011;33994;50.998;5.864;2023-04-01T02:34:17;2.95;;;0.95;;
48203;SDS011;33994;50.998;5.864;2023-04-01T02:37:22;1.95;;;0.70;;
48203;SDS011;33994;50.998;5.864;2023-04-01T02:40:25;3.15;;;0.90;;
48203;SDS011;33994;50.998;5.864;2023-04-01T02:43:29;3.88;;;0.68;;
48203;SDS011;33994;50.998;5.864;2023-04-01T02:46:31;3.25;;;0.70;;
48203;SDS011;33994;50.998;5.864;2023-04-01T02:49:35;5.18;;;0.68;;
48203;SDS011;33994;50.998;5.864;2023-04-01T02:52:39;1.15;;;0.50;;
48203;SDS011;33994;50.998;5.864;2023-04-01T02:55:42;2.10;;;0.40;;
48203;SDS011;33994;50.998;5.864;2023-04-01T02:58:45;0.60;;;0.38;;
48203;SDS011;33994;50.998;5.864;2023-04-01T03:01:48;2.40;;;0.50;;
48203;SDS011;33994;50.998;5.864;2023-04-01T03:04:51;0.77;;;0.40;;
48203;SDS011;33994;50.998;5.864;2023-04-01T03:07:56;0.88;;;0.50;;
48203;SDS011;33994;50.998;5.864;2023-04-01T03:10:59;0.85;;;0.40;;
48203;SDS011;33994;50.998;5.864;2023-04-01T03:14:02;1.83;;;0.50;;
48203;SDS011;33994;50.998;5.864;2023-04-01T03:17:05;1.60;;;0.52;;
48203;SDS011;33994;50.998;5.864;2023-04-01T03:20:09;0.80;;;0.45;;
48203;SDS011;33994;50.998;5.864;2023-04-01T03:23:15;0.52;;;0.43;;
48203;SDS011;33994;50.998;5.864;2023-04-01T03:26:18;1.95;;;0.40;;
48203;SDS011;33994;50.998;5.864;2023-04-01T03:29:21;0.63;;;0.30;;
48203;SDS011;33994;50.998;5.864;2023-04-01T03:32:24;1.65;;;0.40;;
48203;SDS011;33994;50.998;5.864;2023-04-01T03:35:27;1.50;;;0.47;;
48203;SDS011;33994;50.998;5.864;2023-04-01T03:38:32;1.50;;;0.60;;
48203;SDS011;33994;50.998;5.864;2023-04-01T03:41:36;1.23;;;0.50;;
48203;SDS011;33994;50.998;5.864;2023-04-01T03:44:40;1.52;;;0.70;;
48203;SDS011;33994;50.998;5.864;2023-04-01T03:47:43;4.85;;;0.60;;
48203;SDS011;33994;50.998;5.864;2023-04-01T03:50:46;1.80;;;0.60;;
48203;SDS011;33994;50.998;5.864;2023-04-01T03:53:51;3.83;;;0.70;;
48203;SDS011;33994;50.998;5.864;2023-04-01T03:56:54;3.88;;;1.00;;
48203;SDS011;33994;50.998;5.864;2023-04-01T03:59:57;3.20;;;1.13;;
48203;SDS011;33994;50.998;5.864;2023-04-01T04:03:00;1.52;;;0.98;;
48203;SDS011;33994;50.998;5.864;2023-04-01T04:06:03;1.77;;;1.30;;
48203;SDS011;33994;50.998;5.864;2023-04-01T04:09:08;4.50;;;1.60;;
48203;SDS011;33994;50.998;5.864;2023-04-01T04:12:11;7.10;;;1.20;;
48203;SDS011;33994;50.998;5.864;2023-04-01T04:15:14;6.78;;;1.48;;
48203;SDS011;33994;50.998;5.864;2023-04-01T04:18:17;2.22;;;1.30;;
48203;SDS011;33994;50.998;5.864;2023-04-01T04:21:20;4.07;;;1.17;;
48203;SDS011;33994;50.998;5.864;2023-04-01T04:24:25;3.63;;;1.63;;
48203;SDS011;33994;50.998;5.864;2023-04-01T04:27:28;3.67;;;1.30;;
48203;SDS011;33994;50.998;5.864;2023-04-01T04:30:30;2.28;;;1.20;;
48203;SDS011;33994;50.998;5.864;2023-04-01T04:33:34;1.77;;;1.13;;
48203;SDS011;33994;50.998;5.864;2023-04-01T04:36:37;2.97;;;1.50;;
48203;SDS011;33994;50.998;5.864;2023-04-01T04:39:41;4.00;;;1.40;;
48203;SDS011;33994;50.998;5.864;2023-04-01T04:42:44;2.42;;;1.55;;
48203;SDS011;33994;50.998;5.864;2023-04-01T04:45:47;3.13;;;2.00;;
48203;SDS011;33994;50.998;5.864;2023-04-01T04:48:51;2.83;;;1.95;;
48203;SDS011;33994;50.998;5.864;2023-04-01T04:51:54;3.50;;;1.95;;
48203;SDS011;33994;50.998;5.864;2023-04-01T04:54:58;3.13;;;1.92;;
48203;SDS011;33994;50.998;5.864;2023-04-01T04:58:01;3.85;;;1.90;;
48203;SDS011;33994;50.998;5.864;2023-04-01T05:01:05;5.35;;;2.05;;
48203;SDS011;33994;50.998;5.864;2023-04-01T05:04:10;2.80;;;1.77;;
48203;SDS011;33994;50.998;5.864;2023-04-01T05:07:13;3.80;;;1.73;;
48203;SDS011;33994;50.998;5.864;2023-04-01T05:10:18;2.53;;;1.55;;
48203;SDS011;33994;50.998;5.864;2023-04-01T05:13:21;3.13;;;2.05;;
48203;SDS011;33994;50.998;5.864;2023-04-01T05:16:24;6.45;;;2.10;;
48203;SDS011;33994;50.998;5.864;2023-04-01T05:19:27;3.88;;;1.83;;
48203;SDS011;33994;50.998;5.864;2023-04-01T05:22:30;5.07;;;1.55;;
48203;SDS011;33994;50.998;5.864;2023-04-01T05:25:36;3.53;;;1.83;;
48203;SDS011;33994;50.998;5.864;2023-04-01T05:28:40;6.13;;;2.40;;
48203;SDS011;33994;50.998;5.864;2023-04-01T05:31:43;9.77;;;4.20;;
48203;SDS011;33994;50.998;5.864;2023-04-01T05:34:46;7.53;;;2.80;;
48203;SDS011;33994;50.998;5.864;2023-04-01T05:37:52;6.43;;;2.50;;
48203;SDS011;33994;50.998;5.864;2023-04-01T05:40:59;4.28;;;2.10;;
48203;SDS011;33994;50.998;5.864;2023-04-01T05:44:03;3.40;;;2.35;;
48203;SDS011;33994;50.998;5.864;2023-04-01T05:47:07;4.57;;;2.20;;
48203;SDS011;33994;50.998;5.864;2023-04-01T05:50:10;3.38;;;2.25;;
48203;SDS011;33994;50.998;5.864;2023-04-01T05:53:13;4.72;;;2.60;;
48203;SDS011;33994;50.998;5.864;2023-04-01T05:56:18;5.38;;;2.40;;
48203;SDS011;33994;50.998;5.864;2023-04-01T05:59:21;4.32;;;2.72;;
48203;SDS011;33994;50.998;5.864;2023-04-01T06:02:24;4.18;;;2.40;;
48203;SDS011;33994;50.998;5.864;2023-04-01T06:05:27;6.60;;;3.08;;
48203;SDS011;33994;50.998;5.864;2023-04-01T06:08:32;6.85;;;3.00;;
48203;SDS011;33994;50.998;5.864;2023-04-01T06:11:37;7.40;;;3.53;;
48203;SDS011;33994;50.998;5.864;2023-04-01T06:14:47;7.97;;;3.58;;
48203;SDS011;33994;50.998;5.864;2023-04-01T06:18:03;9.05;;;3.55;;
48203;SDS011;33994;50.998;5.864;2023-04-01T06:25:10;6.95;;;3.83;;
48203;SDS011;33994;50.998;5.864;2023-04-01T06:28:52;7.95;;;3.58;;
48203;SDS011;33994;50.998;5.864;2023-04-01T06:32:10;8.85;;;3.22;;
48203;SDS011;33994;50.998;5.864;2023-04-01T06:39:00;6.15;;;2.92;;
48203;SDS011;33994;50.998;5.864;2023-04-01T06:42:25;7.60;;;3.58;;
48203;SDS011;33994;50.998;5.864;2023-04-01T06:45:46;5.80;;;4.00;;
48203;SDS011;33994;50.998;5.864;2023-04-01T06:49:02;6.43;;;3.28;;
48203;SDS011;33994;50.998;5.864;2023-04-01T06:52:25;3.57;;;2.53;;
48203;SDS011;33994;50.998;5.864;2023-04-01T06:55:36;5.82;;;2.53;;
48203;SDS011;33994;50.998;5.864;2023-04-01T06:58:44;5.80;;;2.28;;
48203;SDS011;33994;50.998;5.864;2023-04-01T07:01:54;4.07;;;2.50;;
48203;SDS011;33994;50.998;5.864;2023-04-01T07:05:00;2.28;;;2.03;;
48203;SDS011;33994;50.998;5.864;2023-04-01T07:08:04;3.97;;;2.30;;
48203;SDS011;33994;50.998;5.864;2023-04-01T07:11:15;3.17;;;2.28;;
48203;SDS011;33994;50.998;5.864;2023-04-01T07:14:25;3.67;;;2.13;;
48203;SDS011;33994;50.998;5.864;2023-04-01T07:17:36;3.08;;;2.10;;
48203;SDS011;33994;50.998;5.864;2023-04-01T07:20:41;2.33;;;1.67;;
48203;SDS011;33994;50.998;5.864;2023-04-01T07:23:45;3.17;;;1.95;;
48203;SDS011;33994;50.998;5.864;2023-04-01T07:26:51;2.80;;;1.60;;
48203;SDS011;33994;50.998;5.864;2023-04-01T07:29:56;1.25;;;1.05;;
48203;SDS011;33994;50.998;5.864;2023-04-01T07:33:01;2.00;;;1.40;;
48203;SDS011;33994;50.998;5.864;2023-04-01T07:36:10;2.45;;;1.70;;
48203;SDS011;33994;50.998;5.864;2023-04-01T07:39:22;3.40;;;1.80;;
48203;SDS011;33994;50.998;5.864;2023-04-01T07:42:35;3.78;;;1.70;;
48203;SDS011;33994;50.998;5.864;2023-04-01T07:45:51;3.70;;;2.30;;
48203;SDS011;33994;50.998;5.864;2023-04-01T07:49:04;2.30;;;1.70;;
48203;SDS011;33994;50.998;5.864;2023-04-01T07:52:15;2.10;;;1.52;;
48203;SDS011;33994;50.998;5.864;2023-04-01T07:55:23;2.08;;;1.48;;
48203;SDS011;33994;50.998;5.864;2023-04-01T07:58:33;3.17;;;1.45;;
48203;SDS011;33994;50.998;5.864;2023-04-01T08:01:43;2.38;;;1.33;;
48203;SDS011;33994;50.998;5.864;2023-04-01T08:05:00;1.50;;;1.23;;
48203;SDS011;33994;50.998;5.864;2023-04-01T08:08:12;1.40;;;1.30;;
48203;SDS011;33994;50.998;5.864;2023-04-01T08:11:25;1.52;;;1.20;;
48203;SDS011;33994;50.998;5.864;2023-04-01T08:14:44;2.40;;;1.38;;
48203;SDS011;33994;50.998;5.864;2023-04-01T08:17:58;1.50;;;1.40;;
48203;SDS011;33994;50.998;5.864;2023-04-01T08:21:11;1.95;;;1.20;;
48203;SDS011;33994;50.998;5.864;2023-04-01T08:24:22;1.77;;;1.50;;
48203;SDS011;33994;50.998;5.864;2023-04-01T08:27:30;2.78;;;1.20;;
48203;SDS011;33994;50.998;5.864;2023-04-01T08:30:39;1.27;;;1.17;;
48203;SDS011;33994;50.998;5.864;2023-04-01T08:33:46;1.50;;;1.10;;
48203;SDS011;33994;50.998;5.864;2023-04-01T08:36:51;1.30;;;1.20;;
48203;SDS011;33994;50.998;5.864;2023-04-01T08:42:24;1.80;;;1.17;;
48203;SDS011;33994;50.998;5.864;2023-04-01T08:45:48;1.23;;;1.13;;
48203;SDS011;33994;50.998;5.864;2023-04-01T08:49:09;1.85;;;1.30;;
48203;SDS011;33994;50.998;5.864;2023-04-01T08:52:30;2.50;;;1.50;;
48203;SDS011;33994;50.998;5.864;2023-04-01T08:59:21;1.15;;;1.05;;
48203;SDS011;33994;50.998;5.864;2023-04-01T09:02:49;1.30;;;1.08;;
48203;SDS011;33994;50.998;5.864;2023-04-01T09:10:02;1.38;;;1.27;;
48203;SDS011;33994;50.998;5.864;2023-04-01T09:17:06;3.13;;;1.90;;
48203;SDS011;33994;50.998;5.864;2023-04-01T09:20:30;5.47;;;2.10;;
48203;SDS011;33994;50.998;5.864;2023-04-01T09:27:31;2.53;;;1.92;;
48203;SDS011;33994;50.998;5.864;2023-04-01T09:34:05;2.20;;;1.65;;
48203;SDS011;33994;50.998;5.864;2023-04-01T09:37:29;1.88;;;1.77;;
48203;SDS011;33994;50.998;5.864;2023-04-01T09:40:41;2.97;;;2.22;;
48203;SDS011;33994;50.998;5.864;2023-04-01T09:43:56;2.15;;;1.92;;
48203;SDS011;33994;50.998;5.864;2023-04-01T09:47:09;4.78;;;2.00;;
48203;SDS011;33994;50.998;5.864;2023-04-01T09:50:29;2.13;;;1.88;;
48203;SDS011;33994;50.998;5.864;2023-04-01T09:53:42;2.05;;;1.85;;
48203;SDS011;33994;50.998;5.864;2023-04-01T09:57:17;2.53;;;1.95;;
48203;SDS011;33994;50.998;5.864;2023-04-01T10:00:42;2.33;;;2.10;;
48203;SDS011;33994;50.998;5.864;2023-04-01T10:04:11;2.88;;;2.25;;
48203;SDS011;33994;50.998;5.864;2023-04-01T10:07:39;2.80;;;2.47;;
48203;SDS011;33994;50.998;5.864;2023-04-01T10:11:15;3.13;;;2.40;;
48203;SDS011;33994;50.998;5.864;2023-04-01T10:14:51;2.43;;;2.23;;
48203;SDS011;33994;50.998;5.864;2023-04-01T10:18:24;3.83;;;2.58;;
48203;SDS011;33994;50.998;5.864;2023-04-01T10:25:30;3.03;;;2.40;;
48203;SDS011;33994;50.998;5.864;2023-04-01T10:28:57;3.55;;;2.92;;
48203;SDS011;33994;50.998;5.864;2023-04-01T10:36:01;3.47;;;3.17;;
48203;SDS011;33994;50.998;5.864;2023-04-01T10:43:19;3.33;;;2.92;;
48203;SDS011;33994;50.998;5.864;2023-04-01T10:46:46;4.05;;;3.15;;
48203;SDS011;33994;50.998;5.864;2023-04-01T10:50:10;4.82;;;3.08;;
48203;SDS011;33994;50.998;5.864;2023-04-01T10:56:56;3.80;;;2.70;;
48203;SDS011;33994;50.998;5.864;2023-04-01T11:03:27;3.22;;;2.63;;
48203;SDS011;33994;50.998;5.864;2023-04-01T11:10:29;3.55;;;2.80;;
48203;SDS011;33994;50.998;5.864;2023-04-01T11:25:11;3.28;;;2.28;;
48203;SDS011;33994;50.998;5.864;2023-04-01T11:28:32;2.65;;;2.35;;
48203;SDS011;33994;50.998;5.864;2023-04-01T11:31:55;3.20;;;2.67;;
48203;SDS011;33994;50.998;5.864;2023-04-01T11:35:12;2.85;;;2.22;;
48203;SDS011;33994;50.998;5.864;2023-04-01T11:38:34;2.40;;;2.20;;
48203;SDS011;33994;50.998;5.864;2023-04-01T11:41:52;3.95;;;2.03;;
48203;SDS011;33994;50.998;5.864;2023-04-01T11:45:07;2.42;;;2.22;;
48203;SDS011;33994;50.998;5.864;2023-04-01T11:48:27;3.83;;;2.50;;
48203;SDS011;33994;50.998;5.864;2023-04-01T11:51:57;3.58;;;2.63;;
48203;SDS011;33994;50.998;5.864;2023-04-01T11:55:25;3.28;;;2.72;;
48203;SDS011;33994;50.998;5.864;2023-04-01T11:58:47;2.30;;;2.10;;
48203;SDS011;33994;50.998;5.864;2023-04-01T12:01:59;2.83;;;2.45;;
48203;SDS011;33994;50.998;5.864;2023-04-01T12:05:20;2.70;;;2.20;;
48203;SDS011;33994;50.998;5.864;2023-04-01T12:08:36;1.92;;;1.70;;
48203;SDS011;33994;50.998;5.864;2023-04-01T12:11:51;2.10;;;1.90;;
48203;SDS011;33994;50.998;5.864;2023-04-01T12:15:16;4.97;;;2.58;;
48203;SDS011;33994;50.998;5.864;2023-04-01T12:18:31;3.13;;;2.22;;
48203;SDS011;33994;50.998;5.864;2023-04-01T12:21:38;2.78;;;2.47;;
48203;SDS011;33994;50.998;5.864;2023-04-01T12:24:48;3.42;;;2.58;;
48203;SDS011;33994;50.998;5.864;2023-04-01T12:28:01;3.08;;;2.78;;
48203;SDS011;33994;50.998;5.864;2023-04-01T12:31:15;3.10;;;2.53;;
48203;SDS011;33994;50.998;5.864;2023-04-01T12:34:41;2.80;;;2.50;;
48203;SDS011;33994;50.998;5.864;2023-04-01T12:37:59;4.45;;;2.60;;
48203;SDS011;33994;50.998;5.864;2023-04-01T12:41:17;3.72;;;2.90;;
48203;SDS011;33994;50.998;5.864;2023-04-01T12:44:34;2.75;;;2.20;;
48203;SDS011;33994;50.998;5.864;2023-04-01T12:47:51;3.08;;;2.40;;
48203;SDS011;33994;50.998;5.864;2023-04-01T12:54:55;4.57;;;3.78;;
48203;SDS011;33994;50.998;5.864;2023-04-01T13:02:02;5.60;;;4.30;;
48203;SDS011;33994;50.998;5.864;2023-04-01T13:05:16;7.75;;;4.85;;
48203;SDS011;33994;50.998;5.864;2023-04-01T13:08:39;6.75;;;5.20;;
48203;SDS011;33994;50.998;5.864;2023-04-01T13:11:51;8.95;;;6.03;;
48203;SDS011;33994;50.998;5.864;2023-04-01T13:18:34;7.03;;;5.25;;
48203;SDS011;33994;50.998;5.864;2023-04-01T13:21:50;7.05;;;5.28;;
48203;SDS011;33994;50.998;5.864;2023-04-01T13:24:59;7.03;;;4.63;;
48203;SDS011;33994;50.998;5.864;2023-04-01T13:28:10;4.78;;;4.28;;
48203;SDS011;33994;50.998;5.864;2023-04-01T13:31:23;5.97;;;5.10;;
48203;SDS011;33994;50.998;5.864;2023-04-01T13:34:39;6.57;;;5.10;;
48203;SDS011;33994;50.998;5.864;2023-04-01T13:38:00;7.07;;;5.60;;
48203;SDS011;33994;50.998;5.864;2023-04-01T13:41:16;6.47;;;5.10;;
48203;SDS011;33994;50.998;5.864;2023-04-01T13:44:29;7.97;;;5.32;;
48203;SDS011;33994;50.998;5.864;2023-04-01T13:51:20;4.60;;;4.03;;
48203;SDS011;33994;50.998;5.864;2023-04-01T13:58:09;4.43;;;4.03;;
48203;SDS011;33994;50.998;5.864;2023-04-01T14:01:29;6.32;;;4.72;;
48203;SDS011;33994;50.998;5.864;2023-04-01T14:04:47;5.28;;;3.70;;
48203;SDS011;33994;50.998;5.864;2023-04-01T14:08:06;4.72;;;4.18;;
48203;SDS011;33994;50.998;5.864;2023-04-01T14:11:17;7.20;;;4.30;;
48203;SDS011;33994;50.998;5.864;2023-04-01T14:14:31;5.72;;;4.40;;
48203;SDS011;33994;50.998;5.864;2023-04-01T14:17:50;6.55;;;4.07;;
48203;SDS011;33994;50.998;5.864;2023-04-01T14:21:05;5.85;;;4.80;;
48203;SDS011;33994;50.998;5.864;2023-04-01T14:24:22;6.07;;;4.32;;
48203;SDS011;33994;50.998;5.864;2023-04-01T14:27:37;6.57;;;5.00;;
48203;SDS011;33994;50.998;5.864;2023-04-01T14:30:51;5.50;;;3.70;;
48203;SDS011;33994;50.998;5.864;2023-04-01T14:34:26;5.05;;;3.90;;
48203;SDS011;33994;50.998;5.864;2023-04-01T14:37:55;3.17;;;2.88;;
48203;SDS011;33994;50.998;5.864;2023-04-01T14:41:16;6.95;;;3.35;;
48203;SDS011;33994;50.998;5.864;2023-04-01T14:44:33;4.82;;;3.38;;
48203;SDS011;33994;50.998;5.864;2023-04-01T14:47:56;3.85;;;3.28;;
48203;SDS011;33994;50.998;5.864;2023-04-01T14:51:03;5.00;;;4.10;;
48203;SDS011;33994;50.998;5.864;2023-04-01T14:54:16;7.63;;;3.80;;
48203;SDS011;33994;50.998;5.864;2023-04-01T14:57:24;5.15;;;4.07;;
48203;SDS011;33994;50.998;5.864;2023-04-01T15:00:29;6.25;;;3.90;;
48203;SDS011;33994;50.998;5.864;2023-04-01T15:03:51;6.25;;;3.40;;
48203;SDS011;33994;50.998;5.864;2023-04-01T15:07:06;4.57;;;3.10;;
48203;SDS011;33994;50.998;5.864;2023-04-01T15:10:40;3.78;;;3.15;;
48203;SDS011;33994;50.998;5.864;2023-04-01T15:13:57;3.67;;;3.00;;
48203;SDS011;33994;50.998;5.864;2023-04-01T15:17:25;3.58;;;3.15;;
48203;SDS011;33994;50.998;5.864;2023-04-01T15:20:53;4.22;;;3.17;;
48203;SDS011;33994;50.998;5.864;2023-04-01T15:24:07;4.45;;;3.17;;
48203;SDS011;33994;50.998;5.864;2023-04-01T15:27:19;4.05;;;3.03;;
48203;SDS011;33994;50.998;5.864;2023-04-01T15:30:34;4.93;;;3.53;;
48203;SDS011;33994;50.998;5.864;2023-04-01T15:33:53;5.10;;;3.28;;
48203;SDS011;33994;50.998;5.864;2023-04-01T15:37:15;3.47;;;2.83;;
48203;SDS011;33994;50.998;5.864;2023-04-01T15:40:24;3.13;;;2.63;;
48203;SDS011;33994;50.998;5.864;2023-04-01T15:43:33;5.10;;;3.40;;
48203;SDS011;33994;50.998;5.864;2023-04-01T15:46:44;4.57;;;2.97;;
48203;SDS011;33994;50.998;5.864;2023-04-01T15:49:50;3.85;;;2.80;;
48203;SDS011;33994;50.998;5.864;2023-04-01T15:53:03;3.30;;;2.75;;
48203;SDS011;33994;50.998;5.864;2023-04-01T15:56:16;3.38;;;2.40;;
48203;SDS011;33994;50.998;5.864;2023-04-01T15:59:31;3.20;;;2.80;;
48203;SDS011;33994;50.998;5.864;2023-04-01T16:02:51;3.13;;;2.45;;
48203;SDS011;33994;50.998;5.864;2023-04-01T16:06:12;3.97;;;2.83;;
48203;SDS011;33994;50.998;5.864;2023-04-01T16:09:31;5.57;;;2.83;;
48203;SDS011;33994;50.998;5.864;2023-04-01T16:12:48;3.55;;;2.80;;
48203;SDS011;33994;50.998;5.864;2023-04-01T16:16:03;4.43;;;3.13;;
48203;SDS011;33994;50.998;5.864;2023-04-01T16:22:37;4.07;;;3.20;;
48203;SDS011;33994;50.998;5.864;2023-04-01T16:25:43;4.80;;;3.67;;
48203;SDS011;33994;50.998;5.864;2023-04-01T16:28:53;4.72;;;3.40;;
48203;SDS011;33994;50.998;5.864;2023-04-01T16:32:05;3.67;;;3.20;;
48203;SDS011;33994;50.998;5.864;2023-04-01T16:35:25;4.63;;;3.55;;
48203;SDS011;33994;50.998;5.864;2023-04-01T16:38:38;5.68;;;4.57;;
48203;SDS011;33994;50.998;5.864;2023-04-01T16:41:47;4.60;;;3.95;;
48203;SDS011;33994;50.998;5.864;2023-04-01T16:44:56;4.68;;;3.50;;
48203;SDS011;33994;50.998;5.864;2023-04-01T16:48:06;5.45;;;3.45;;
48203;SDS011;33994;50.998;5.864;2023-04-01T16:51:15;3.72;;;3.13;;
48203;SDS011;33994;50.998;5.864;2023-04-01T16:54:26;4.32;;;3.58;;
48203;SDS011;33994;50.998;5.864;2023-04-01T16:57:35;4.32;;;3.70;;
48203;SDS011;33994;50.998;5.864;2023-04-01T17:00:47;5.13;;;3.70;;
48203;SDS011;33994;50.998;5.864;2023-04-01T17:03:53;4.00;;;3.42;;
48203;SDS011;33994;50.998;5.864;2023-04-01T17:07:10;5.03;;;3.78;;
48203;SDS011;33994;50.998;5.864;2023-04-01T17:13:51;5.13;;;3.60;;
48203;SDS011;33994;50.998;5.864;2023-04-01T17:17:12;4.93;;;4.22;;
48203;SDS011;33994;50.998;5.864;2023-04-01T17:20:26;4.40;;;3.67;;
48203;SDS011;33994;50.998;5.864;2023-04-01T17:23:41;4.15;;;3.35;;
48203;SDS011;33994;50.998;5.864;2023-04-01T17:26:49;4.30;;;3.13;;
48203;SDS011;33994;50.998;5.864;2023-04-01T17:33:35;3.22;;;2.45;;
48203;SDS011;33994;50.998;5.864;2023-04-01T17:36:54;3.55;;;2.17;;
48203;SDS011;33994;50.998;5.864;2023-04-01T17:40:14;3.17;;;2.33;;
48203;SDS011;33994;50.998;5.864;2023-04-01T17:43:37;4.20;;;2.13;;
48203;SDS011;33994;50.998;5.864;2023-04-01T17:50:20;1.90;;;1.63;;
48203;SDS011;33994;50.998;5.864;2023-04-01T17:53:28;2.60;;;1.73;;
48203;SDS011;33994;50.998;5.864;2023-04-01T17:56:44;4.43;;;2.20;;
48203;SDS011;33994;50.998;5.864;2023-04-01T18:00:00;2.45;;;1.90;;
48203;SDS011;33994;50.998;5.864;2023-04-01T18:03:09;3.30;;;1.90;;
48203;SDS011;33994;50.998;5.864;2023-04-01T18:06:26;4.28;;;2.38;;
48203;SDS011;33994;50.998;5.864;2023-04-01T18:09:38;2.63;;;1.88;;
48203;SDS011;33994;50.998;5.864;2023-04-01T18:12:59;3.95;;;2.10;;
48203;SDS011;33994;50.998;5.864;2023-04-01T18:16:23;4.18;;;2.10;;
48203;SDS011;33994;50.998;5.864;2023-04-01T18:19:35;4.30;;;2.78;;
48203;SDS011;33994;50.998;5.864;2023-04-01T18:22:45;5.07;;;3.03;;
48203;SDS011;33994;50.998;5.864;2023-04-01T18:25:52;3.97;;;2.72;;
48203;SDS011;33994;50.998;5.864;2023-04-01T18:29:10;7.43;;;3.92;;
48203;SDS011;33994;50.998;5.864;2023-04-01T18:32:26;4.85;;;3.35;;
48203;SDS011;33994;50.998;5.864;2023-04-01T18:35:34;4.50;;;3.10;;
48203;SDS011;33994;50.998;5.864;2023-04-01T18:38:52;5.97;;;4.03;;
48203;SDS011;33994;50.998;5.864;2023-04-01T18:42:00;5.82;;;4.50;;
48203;SDS011;33994;50.998;5.864;2023-04-01T18:45:14;6.55;;;4.10;;
48203;SDS011;33994;50.998;5.864;2023-04-01T18:48:42;5.50;;;3.90;;
48203;SDS011;33994;50.998;5.864;2023-04-01T18:51:54;4.82;;;3.88;;
48203;SDS011;33994;50.998;5.864;2023-04-01T18:58:33;6.78;;;4.75;;
48203;SDS011;33994;50.998;5.864;2023-04-01T19:01:40;6.80;;;4.28;;
48203;SDS011;33994;50.998;5.864;2023-04-01T19:04:52;5.60;;;3.92;;
48203;SDS011;33994;50.998;5.864;2023-04-01T19:08:14;5.40;;;3.58;;
48203;SDS011;33994;50.998;5.864;2023-04-01T19:14:31;3.65;;;3.22;;
48203;SDS011;33994;50.998;5.864;2023-04-01T19:17:52;3.45;;;2.97;;
48203;SDS011;33994;50.998;5.864;2023-04-01T19:21:06;3.45;;;2.80;;
48203;SDS011;33994;50.998;5.864;2023-04-01T19:24:25;3.97;;;3.10;;
48203;SDS011;33994;50.998;5.864;2023-04-01T19:27:44;5.60;;;3.35;;
48203;SDS011;33994;50.998;5.864;2023-04-01T19:30:53;3.50;;;2.67;;
48203;SDS011;33994;50.998;5.864;2023-04-01T19:34:02;5.38;;;3.58;;
48203;SDS011;33994;50.998;5.864;2023-04-01T19:37:22;5.43;;;3.03;;
48203;SDS011;33994;50.998;5.864;2023-04-01T19:40:37;4.25;;;3.05;;
48203;SDS011;33994;50.998;5.864;2023-04-01T19:43:52;6.18;;;3.05;;
48203;SDS011;33994;50.998;5.864;2023-04-01T19:47:05;3.13;;;2.60;;
48203;SDS011;33994;50.998;5.864;2023-04-01T19:50:22;4.05;;;3.17;;
48203;SDS011;33994;50.998;5.864;2023-04-01T19:53:34;3.90;;;3.20;;
48203;SDS011;33994;50.998;5.864;2023-04-01T19:56:44;5.05;;;3.20;;
48203;SDS011;33994;50.998;5.864;2023-04-01T19:59:56;8.07;;;3.55;;
48203;SDS011;33994;50.998;5.864;2023-04-01T20:03:05;3.30;;;2.90;;
48203;SDS011;33994;50.998;5.864;2023-04-01T20:06:32;6.38;;;3.42;;
48203;SDS011;33994;50.998;5.864;2023-04-01T20:09:42;3.90;;;3.33;;
48203;SDS011;33994;50.998;5.864;2023-04-01T20:12:54;3.97;;;3.38;;
48203;SDS011;33994;50.998;5.864;2023-04-01T20:16:03;5.45;;;4.20;;
48203;SDS011;33994;50.998;5.864;2023-04-01T20:19:08;6.60;;;4.90;;
48203;SDS011;33994;50.998;5.864;2023-04-01T20:22:23;7.00;;;5.50;;
48203;SDS011;33994;50.998;5.864;2023-04-01T20:25:33;6.78;;;5.38;;
48203;SDS011;33994;50.998;5.864;2023-04-01T20:28:43;6.43;;;4.95;;
48203;SDS011;33994;50.998;5.864;2023-04-01T20:31:50;7.38;;;5.57;;
48203;SDS011;33994;50.998;5.864;2023-04-01T20:35:10;7.03;;;5.03;;
48203;SDS011;33994;50.998;5.864;2023-04-01T20:42:12;7.20;;;5.22;;
48203;SDS011;33994;50.998;5.864;2023-04-01T20:45:28;8.23;;;5.82;;
48203;SDS011;33994;50.998;5.864;2023-04-01T20:52:29;8.18;;;5.80;;
48203;SDS011;33994;50.998;5.864;2023-04-01T20:55:55;8.25;;;5.50;;
48203;SDS011;33994;50.998;5.864;2023-04-01T20:59:14;7.68;;;5.03;;
48203;SDS011;33994;50.998;5.864;2023-04-01T21:02:34;6.80;;;5.10;;
48203;SDS011;33994;50.998;5.864;2023-04-01T21:05:57;6.63;;;4.70;;
48203;SDS011;33994;50.998;5.864;2023-04-01T21:09:17;6.22;;;4.63;;